Time;durP1;ratioP1;P1;durP2;ratioP2;P2;SDS_P1;SDS_P2;PMS_P1;PMS_P2;Temp;Humidity;BMP_temperature;BMP_pressure;BME280_temperature;BME280_humidity;BME280_pressure;Samples;Min_cycle;Max_cycle;Signal;HPM_P1;HPM_P2
2023/03/29 00:01:48;;;;;;;4.30;0.80;;;6.20;99.90;;;;;;5075115;28;20054;-72
2023/03/29 00:04:18;;;;;;;3.80;0.85;;;6.20;99.90;;;;;;5050759;28;20037;-72
2023/03/29 00:06:47;;;;;;;1.77;0.77;;;6.10;99.90;;;;;;5069910;28;20517;-72
2023/03/29 00:09:14;;;;;;;3.10;0.70;;;6.10;99.90;;;;;;5076817;28;20032;-72
2023/03/29 00:11:40;;;;;;;1.83;0.80;;;6.20;99.90;;;;;;5068952;28;20393;-72
2023/03/29 00:14:05;;;;;;;1.73;0.90;;;6.10;99.90;;;;;;5056512;28;20045;-72
2023/03/29 00:16:31;;;;;;;1.83;0.85;;;6.10;99.90;;;;;;5075275;28;20039;-72
2023/03/29 00:18:57;;;;;;;0.98;0.55;;;6.10;99.90;;;;;;5053352;28;20039;-72
2023/03/29 00:21:23;;;;;;;1.85;0.73;;;6.10;99.90;;;;;;5101192;27;20337;-72
2023/03/29 00:23:49;;;;;;;3.22;1.00;;;6.10;99.90;;;;;;5071450;28;20032;-72
2023/03/29 00:26:15;;;;;;;1.73;0.82;;;6.10;99.90;;;;;;5072918;28;20070;-72
2023/03/29 00:28:40;;;;;;;3.50;0.98;;;6.10;99.90;;;;;;5072510;28;20028;-72
2023/03/29 00:31:10;;;;;;;1.42;0.90;;;6.10;99.90;;;;;;5075037;28;20619;-72
2023/03/29 00:33:36;;;;;;;2.63;1.02;;;6.10;99.90;;;;;;5055384;28;20082;-72
2023/03/29 00:36:03;;;;;;;1.83;1.10;;;6.00;99.90;;;;;;5066168;28;20048;-72
2023/03/29 00:38:29;;;;;;;2.10;0.90;;;6.10;99.90;;;;;;5073541;28;20165;-72
2023/03/29 00:40:55;;;;;;;1.75;1.02;;;6.10;99.90;;;;;;5055510;28;20346;-72
2023/03/29 00:43:21;;;;;;;1.73;1.00;;;6.10;99.90;;;;;;5073707;28;20719;-72
2023/03/29 00:45:47;;;;;;;5.03;1.08;;;6.10;99.90;;;;;;5103663;27;20028;-72
2023/03/29 00:48:17;;;;;;;2.38;0.90;;;6.00;99.90;;;;;;5087487;28;20366;-72
2023/03/29 00:50:48;;;;;;;2.28;1.00;;;6.00;99.90;;;;;;5066144;28;20060;-72
2023/03/29 00:53:32;;;;;;;3.22;1.08;;;6.10;99.90;;;;;;5074638;28;20643;-72
2023/03/29 00:56:06;;;;;;;4.13;1.00;;;6.10;99.90;;;;;;5074620;28;20037;-72
2023/03/29 00:58:46;;;;;;;2.72;0.93;;;6.10;99.90;;;;;;5109361;27;20467;-72
2023/03/29 01:01:21;;;;;;;2.30;1.25;;;6.00;99.90;;;;;;5073626;28;20044;-72
2023/03/29 01:04:19;;;;;;;3.70;0.85;;;6.10;99.90;;;;;;5085141;28;20071;-72
2023/03/29 01:06:54;;;;;;;2.47;1.40;;;6.10;99.90;;;;;;5062463;28;20294;-72
2023/03/29 01:09:22;;;;;;;1.85;1.00;;;6.10;99.90;;;;;;5072345;28;20039;-72
2023/03/29 01:11:53;;;;;;;3.00;1.17;;;6.10;99.90;;;;;;5072744;28;20036;-72
2023/03/29 01:14:25;;;;;;;2.38;1.25;;;6.10;99.90;;;;;;5073656;28;20048;-72
2023/03/29 01:16:52;;;;;;;2.88;1.30;;;6.10;99.90;;;;;;5054694;28;20037;-72
2023/03/29 01:19:21;;;;;;;2.67;1.40;;;6.10;99.90;;;;;;5071461;28;20051;-72
2023/03/29 01:21:54;;;;;;;2.33;1.10;;;6.10;99.90;;;;;;5055087;28;20048;-72
2023/03/29 01:24:44;;;;;;;2.92;1.17;;;6.10;99.90;;;;;;5074387;28;20036;-72
2023/03/29 01:27:21;;;;;;;2.70;1.30;;;6.10;99.90;;;;;;5068617;28;20059;-72
2023/03/29 01:29:52;;;;;;;2.17;1.27;;;6.00;99.90;;;;;;5102458;27;20040;-72
2023/03/29 01:32:37;;;;;;;2.10;1.02;;;6.00;99.90;;;;;;5072914;28;20064;-72
2023/03/29 01:35:12;;;;;;;2.47;0.93;;;6.00;99.90;;;;;;5069761;28;20032;-72
2023/03/29 01:37:49;;;;;;;2.55;1.35;;;6.00;99.90;;;;;;5078704;28;20563;-72
2023/03/29 01:40:15;;;;;;;3.33;1.25;;;6.00;99.90;;;;;;5100586;27;20044;-72
2023/03/29 01:43:22;;;;;;;2.35;1.35;;;6.00;99.90;;;;;;5073471;28;20312;-72
2023/03/29 01:45:47;;;;;;;4.30;1.13;;;6.00;99.90;;;;;;5068860;28;20037;-72
2023/03/29 01:48:27;;;;;;;3.97;1.50;;;6.00;99.90;;;;;;5066076;28;20040;-72
2023/03/29 01:50:59;;;;;;;3.92;2.10;;;6.00;99.90;;;;;;5062601;28;20044;-72
2023/03/29 01:53:39;;;;;;;2.30;1.08;;;6.00;99.90;;;;;;5070644;28;20086;-72
2023/03/29 01:56:16;;;;;;;2.67;1.10;;;6.00;99.90;;;;;;5049505;28;20365;-72
2023/03/29 01:58:50;;;;;;;2.50;1.27;;;6.00;99.90;;;;;;5052100;28;20040;-72
2023/03/29 02:01:21;;;;;;;2.25;1.30;;;6.00;99.90;;;;;;5065969;28;20558;-72
2023/03/29 02:03:53;;;;;;;2.13;1.20;;;6.00;99.90;;;;;;5067029;28;20043;-72
2023/03/29 02:06:22;;;;;;;2.05;0.90;;;6.00;99.90;;;;;;5067886;28;20051;-72
2023/03/29 02:08:50;;;;;;;2.55;1.45;;;6.00;99.90;;;;;;5082753;28;20039;-72
2023/03/29 02:11:16;;;;;;;3.33;1.40;;;6.00;99.90;;;;;;5066904;28;20123;-72
2023/03/29 02:13:42;;;;;;;3.47;1.38;;;6.00;99.90;;;;;;5050430;28;20076;-72
2023/03/29 02:16:13;;;;;;;2.30;1.13;;;6.00;99.90;;;;;;5077184;28;20086;-72
2023/03/29 02:18:43;;;;;;;2.90;1.33;;;6.00;99.90;;;;;;5098667;27;20044;-72
2023/03/29 02:21:15;;;;;;;4.20;1.70;;;6.10;99.90;;;;;;5095286;28;20033;-72
2023/03/29 02:23:45;;;;;;;3.40;1.35;;;6.00;99.90;;;;;;5050700;28;20040;-72
2023/03/29 02:26:13;;;;;;;2.20;1.20;;;6.00;99.90;;;;;;5066957;28;20032;-72
2023/03/29 02:28:40;;;;;;;4.13;1.17;;;6.00;99.90;;;;;;5064805;28;21065;-72
2023/03/29 02:31:14;;;;;;;3.13;1.40;;;6.00;99.90;;;;;;5071343;28;20097;-72
2023/03/29 02:33:45;;;;;;;2.60;1.50;;;6.00;99.90;;;;;;5066537;28;20040;-72
2023/03/29 02:36:22;;;;;;;3.20;1.30;;;6.00;99.90;;;;;;5049681;28;20037;-72
2023/03/29 02:38:49;;;;;;;2.70;0.95;;;6.00;99.90;;;;;;5066157;28;20055;-72
2023/03/29 02:41:16;;;;;;;2.13;1.13;;;6.00;99.90;;;;;;5069286;28;20039;-72
2023/03/29 02:43:44;;;;;;;5.78;1.90;;;6.00;99.90;;;;;;5070381;28;20032;-72
2023/03/29 02:46:11;;;;;;;3.40;1.30;;;6.00;99.90;;;;;;5055329;28;20386;-72
2023/03/29 02:48:37;;;;;;;6.65;1.63;;;6.00;99.90;;;;;;5099760;28;20040;-72
2023/03/29 02:51:10;;;;;;;4.95;1.80;;;6.00;99.90;;;;;;5066063;28;20036;-72
2023/03/29 02:53:43;;;;;;;4.55;1.90;;;6.00;99.90;;;;;;5083485;28;20043;-72
2023/03/29 02:56:09;;;;;;;3.63;1.92;;;6.00;99.90;;;;;;5080973;28;20481;-72
2023/03/29 02:58:35;;;;;;;4.88;2.47;;;6.00;99.90;;;;;;5065475;28;20044;-72
2023/03/29 03:01:01;;;;;;;4.80;1.92;;;6.00;99.90;;;;;;5105278;27;20401;-72
2023/03/29 03:03:27;;;;;;;4.88;1.95;;;6.00;99.90;;;;;;5073629;28;20028;-72
2023/03/29 03:05:53;;;;;;;4.38;2.42;;;6.00;99.90;;;;;;5054496;28;20039;-72
2023/03/29 03:08:19;;;;;;;3.97;1.77;;;6.00;99.90;;;;;;5052121;28;20044;-72
2023/03/29 03:10:45;;;;;;;3.60;1.90;;;6.00;99.90;;;;;;5068657;28;20040;-72
2023/03/29 03:13:11;;;;;;;5.63;2.33;;;6.00;99.90;;;;;;5069780;28;20400;-72
2023/03/29 03:15:37;;;;;;;5.13;1.65;;;6.10;99.90;;;;;;5081289;28;20055;-72
2023/03/29 03:18:03;;;;;;;4.63;1.95;;;6.00;99.90;;;;;;5071808;28;20112;-72
2023/03/29 03:20:29;;;;;;;5.82;2.35;;;6.10;99.90;;;;;;5048404;28;20467;-72
2023/03/29 03:22:56;;;;;;;4.63;2.03;;;6.00;99.90;;;;;;5071171;28;20498;-72
2023/03/29 03:25:22;;;;;;;3.95;2.28;;;6.00;99.90;;;;;;5053594;28;20525;-72
2023/03/29 03:27:49;;;;;;;7.13;2.75;;;6.00;99.90;;;;;;5072623;28;20032;-72
2023/03/29 03:30:15;;;;;;;4.43;2.50;;;6.10;99.90;;;;;;5068162;28;20037;-72
2023/03/29 03:32:42;;;;;;;5.38;2.55;;;6.10;99.90;;;;;;5052312;28;20374;-72
2023/03/29 03:35:10;;;;;;;5.13;2.70;;;6.10;99.90;;;;;;5080430;28;20035;-72
2023/03/29 03:37:37;;;;;;;4.53;2.63;;;6.10;99.90;;;;;;5063210;28;20036;-72
2023/03/29 03:40:10;;;;;;;7.72;3.05;;;6.10;99.90;;;;;;5066985;28;20033;-72
2023/03/29 03:42:39;;;;;;;4.50;2.22;;;6.10;99.90;;;;;;5086604;28;20041;-72
2023/03/29 03:45:07;;;;;;;5.75;2.55;;;6.10;99.90;;;;;;5074977;28;20132;-72
2023/03/29 03:47:33;;;;;;;7.63;2.83;;;6.10;99.90;;;;;;5073434;28;20413;-72
2023/03/29 03:49:59;;;;;;;5.45;2.90;;;6.10;99.90;;;;;;5101208;27;20048;-72
2023/03/29 03:52:25;;;;;;;6.45;3.03;;;6.10;99.90;;;;;;5057038;28;20294;-72
2023/03/29 03:54:50;;;;;;;7.68;3.25;;;6.10;99.90;;;;;;5079225;28;20120;-72
2023/03/29 03:57:16;;;;;;;5.47;2.85;;;6.10;99.90;;;;;;5108603;27;20501;-72
2023/03/29 03:59:42;;;;;;;5.68;2.58;;;6.10;99.90;;;;;;5047954;28;20455;-72
2023/03/29 04:02:07;;;;;;;5.63;2.65;;;6.10;99.90;;;;;;5067528;28;20051;-72
2023/03/29 04:04:33;;;;;;;5.82;2.60;;;6.20;99.90;;;;;;5066450;28;20860;-72
2023/03/29 04:07:03;;;;;;;5.55;2.90;;;6.20;99.90;;;;;;5072906;28;20032;-72
2023/03/29 04:09:30;;;;;;;6.07;2.83;;;6.20;99.90;;;;;;5068278;28;20068;-72
2023/03/29 04:11:57;;;;;;;6.85;2.70;;;6.20;99.90;;;;;;5066085;28;20132;-72
2023/03/29 04:14:24;;;;;;;8.43;2.97;;;6.10;99.90;;;;;;5070237;28;20482;-72
2023/03/29 04:16:51;;;;;;;6.57;2.78;;;6.20;99.90;;;;;;5071237;28;20046;-72
2023/03/29 04:19:17;;;;;;;7.68;3.03;;;6.10;99.90;;;;;;5079277;28;20080;-73
2023/03/29 04:21:44;;;;;;;8.98;3.38;;;6.10;99.90;;;;;;5072261;28;20451;-72
2023/03/29 04:24:11;;;;;;;6.65;2.58;;;6.10;99.90;;;;;;5069250;28;20032;-72
2023/03/29 04:26:37;;;;;;;8.45;3.00;;;6.10;99.90;;;;;;5052713;28;20041;-72
2023/03/29 04:29:03;;;;;;;6.35;2.65;;;6.20;99.90;;;;;;5104642;27;20217;-72
2023/03/29 04:31:29;;;;;;;6.15;2.50;;;6.20;99.90;;;;;;5066550;28;20082;-72
2023/03/29 04:33:55;;;;;;;7.13;2.58;;;6.20;99.90;;;;;;5067405;28;20033;-72
2023/03/29 04:36:20;;;;;;;6.32;2.75;;;6.20;99.90;;;;;;5067257;28;20037;-72
2023/03/29 04:38:46;;;;;;;8.98;2.78;;;6.20;99.90;;;;;;5068436;28;20048;-72
2023/03/29 04:41:12;;;;;;;6.20;2.72;;;6.20;99.90;;;;;;5057601;28;20036;-72
2023/03/29 04:43:37;;;;;;;6.05;2.53;;;6.20;99.90;;;;;;5072413;28;20054;-72
2023/03/29 04:46:06;;;;;;;6.90;3.00;;;6.20;99.90;;;;;;5070875;28;20503;-72
2023/03/29 04:48:32;;;;;;;6.18;2.78;;;6.20;99.90;;;;;;5069457;28;20032;-72
2023/03/29 04:50:58;;;;;;;4.88;2.47;;;6.20;99.90;;;;;;5069438;28;20379;-72
2023/03/29 04:53:24;;;;;;;9.15;3.03;;;6.20;99.90;;;;;;5089906;28;20422;-72
2023/03/29 04:55:49;;;;;;;5.57;2.97;;;6.20;99.90;;;;;;5072703;28;20048;-72
2023/03/29 04:58:15;;;;;;;6.57;2.60;;;6.20;99.90;;;;;;5052418;28;20040;-72
2023/03/29 05:00:41;;;;;;;4.35;2.35;;;6.20;99.90;;;;;;5069590;28;20044;-72
2023/03/29 05:03:10;;;;;;;6.95;2.78;;;6.20;99.90;;;;;;5068173;28;20043;-72
2023/03/29 05:05:36;;;;;;;8.00;2.90;;;6.20;99.90;;;;;;5068194;28;20040;-72
2023/03/29 05:08:02;;;;;;;6.80;3.30;;;6.20;99.90;;;;;;5071986;28;20505;-72
2023/03/29 05:10:27;;;;;;;6.32;2.70;;;6.20;99.90;;;;;;5054418;28;20043;-72
2023/03/29 05:12:53;;;;;;;6.55;2.42;;;6.20;99.90;;;;;;5084829;28;20064;-72
2023/03/29 05:15:20;;;;;;;6.35;2.70;;;6.20;99.90;;;;;;5067429;28;20043;-72
2023/03/29 05:17:46;;;;;;;6.32;2.85;;;6.20;99.90;;;;;;5065430;28;20048;-72
2023/03/29 05:20:12;;;;;;;5.32;2.83;;;6.30;99.90;;;;;;5071941;28;20044;-72
2023/03/29 05:22:39;;;;;;;6.05;3.15;;;6.20;99.90;;;;;;5069724;28;20089;-72
2023/03/29 05:25:05;;;;;;;5.93;2.78;;;6.20;99.90;;;;;;5068733;28;20037;-72
2023/03/29 05:27:32;;;;;;;9.55;4.20;;;6.20;99.90;;;;;;5099802;27;20233;-72
2023/03/29 05:29:58;;;;;;;5.45;2.30;;;6.20;99.90;;;;;;5065876;28;20111;-72
2023/03/29 05:32:23;;;;;;;6.80;2.92;;;6.30;99.90;;;;;;5075139;28;20186;-72
2023/03/29 05:34:49;;;;;;;5.32;2.47;;;6.20;99.90;;;;;;5103260;27;20040;-72
2023/03/29 05:37:15;;;;;;;6.80;2.63;;;6.20;99.90;;;;;;5068623;28;20043;-74
2023/03/29 05:39:41;;;;;;;5.97;2.88;;;6.30;99.90;;;;;;5051241;28;20174;-72
2023/03/29 05:42:11;;;;;;;6.03;2.67;;;6.20;99.90;;;;;;5065048;28;20086;-72
2023/03/29 05:44:36;;;;;;;6.03;3.03;;;6.20;99.90;;;;;;5066281;28;20780;-72
2023/03/29 05:47:02;;;;;;;5.95;2.50;;;6.20;99.90;;;;;;5082038;28;20478;-72
2023/03/29 05:49:27;;;;;;;5.15;2.45;;;6.20;99.90;;;;;;5066599;28;20040;-71
2023/03/29 05:51:55;;;;;;;5.63;3.00;;;6.20;99.90;;;;;;5070753;28;20517;-71
2023/03/29 05:54:22;;;;;;;8.18;2.60;;;6.20;99.90;;;;;;5065372;28;20055;-71
2023/03/29 05:56:48;;;;;;;4.43;2.42;;;6.20;99.90;;;;;;5059439;28;20032;-71
2023/03/29 05:59:13;;;;;;;5.63;2.17;;;6.20;99.90;;;;;;5056585;28;21888;-71
2023/03/29 06:01:40;;;;;;;5.63;2.28;;;6.20;99.90;;;;;;5074790;28;20039;-71
2023/03/29 06:04:06;;;;;;;8.07;2.60;;;6.20;99.90;;;;;;5055813;28;20033;-71
2023/03/29 06:06:32;;;;;;;5.47;2.42;;;6.20;99.90;;;;;;5075720;28;20036;-70
2023/03/29 06:08:58;;;;;;;6.25;3.08;;;6.20;99.90;;;;;;5070809;28;20371;-75
2023/03/29 06:11:25;;;;;;;7.47;2.78;;;6.20;99.90;;;;;;5086686;28;20113;-76
2023/03/29 06:13:51;;;;;;;5.70;2.92;;;6.20;99.90;;;;;;5048601;28;20052;-70
2023/03/29 06:16:17;;;;;;;6.55;3.03;;;6.20;99.90;;;;;;5083644;28;20490;-71
2023/03/29 06:18:43;;;;;;;5.13;2.17;;;6.20;99.90;;;;;;5074947;28;20055;-71
2023/03/29 06:21:09;;;;;;;5.30;2.30;;;6.20;99.90;;;;;;5064600;28;20059;-72
2023/03/29 06:23:35;;;;;;;3.50;1.95;;;6.20;99.90;;;;;;5103052;27;20028;-72
2023/03/29 06:26:01;;;;;;;4.57;2.33;;;6.20;99.90;;;;;;5077820;28;20079;-71
2023/03/29 06:28:26;;;;;;;4.78;1.88;;;6.30;99.90;;;;;;5071412;28;20032;-72
2023/03/29 06:30:55;;;;;;;6.80;2.50;;;6.20;99.90;;;;;;5081776;28;20047;-72
2023/03/29 06:33:21;;;;;;;7.05;2.25;;;6.30;99.90;;;;;;5080040;28;20032;-72
2023/03/29 06:35:48;;;;;;;4.25;2.17;;;6.30;99.90;;;;;;5062590;28;20384;-72
2023/03/29 06:38:15;;;;;;;5.07;2.55;;;6.30;99.90;;;;;;5089383;28;21366;-72
2023/03/29 06:40:42;;;;;;;4.97;2.50;;;6.40;99.90;;;;;;5086193;28;20036;-72
2023/03/29 06:43:07;;;;;;;4.35;2.15;;;6.40;99.90;;;;;;5098049;28;20047;-72
2023/03/29 06:45:35;;;;;;;6.55;2.67;;;6.40;99.90;;;;;;5080813;28;20037;-71
2023/03/29 06:48:02;;;;;;;4.22;2.47;;;6.40;99.90;;;;;;5084206;28;20721;-72
2023/03/29 06:50:28;;;;;;;4.60;2.20;;;6.40;99.90;;;;;;5068990;28;20539;-71
2023/03/29 06:52:54;;;;;;;6.25;2.53;;;6.50;99.90;;;;;;5109462;27;20032;-72
2023/03/29 06:55:21;;;;;;;5.15;2.65;;;6.50;99.90;;;;;;5087789;28;20104;-72
2023/03/29 06:57:47;;;;;;;10.50;3.08;;;6.50;99.90;;;;;;5083199;28;20052;-72
2023/03/29 07:00:17;;;;;;;7.15;2.40;;;6.50;99.90;;;;;;5086680;28;20048;-73
2023/03/29 07:02:46;;;;;;;5.30;2.50;;;6.50;99.90;;;;;;5108170;27;20028;-72
2023/03/29 07:05:13;;;;;;;4.35;2.30;;;6.60;99.90;;;;;;5081039;28;20031;-72
2023/03/29 07:07:52;;;;;;;6.25;2.42;;;6.60;99.90;;;;;;5088177;28;20059;-72
2023/03/29 07:10:40;;;;;;;5.68;2.47;;;6.60;99.90;;;;;;5080004;28;20131;-72
2023/03/29 07:13:08;;;;;;;6.00;2.40;;;6.60;99.90;;;;;;5072023;28;20071;-72
2023/03/29 07:15:34;;;;;;;5.55;2.60;;;6.70;99.90;;;;;;5087760;28;20441;-72
2023/03/29 07:18:02;;;;;;;5.03;2.08;;;6.70;99.90;;;;;;5087682;28;20036;-72
2023/03/29 07:20:27;;;;;;;3.85;2.22;;;6.70;99.90;;;;;;5104213;27;20451;-72
2023/03/29 07:22:53;;;;;;;5.68;2.20;;;6.70;99.90;;;;;;5064101;28;20032;-72
2023/03/29 07:25:22;;;;;;;4.55;2.47;;;6.70;99.90;;;;;;5068480;28;20044;-72
2023/03/29 07:27:49;;;;;;;5.85;2.15;;;6.80;99.90;;;;;;5081624;28;20040;-72
2023/03/29 07:30:17;;;;;;;6.10;2.65;;;6.80;99.90;;;;;;5109164;27;20074;-72
2023/03/29 07:32:44;;;;;;;4.68;2.15;;;6.80;99.90;;;;;;5057948;28;21067;-72
2023/03/29 07:35:11;;;;;;;5.50;2.33;;;6.80;99.90;;;;;;5079664;28;20396;-72
2023/03/29 07:37:37;;;;;;;5.80;2.65;;;6.90;99.90;;;;;;5062217;28;20032;-72
2023/03/29 07:40:11;;;;;;;6.10;2.35;;;6.90;99.90;;;;;;5082452;28;20028;-72
2023/03/29 07:42:38;;;;;;;6.88;2.53;;;6.90;99.90;;;;;;5064005;28;20044;-72
2023/03/29 07:45:05;;;;;;;5.97;2.85;;;6.90;99.90;;;;;;5065528;28;20516;-72
2023/03/29 07:47:30;;;;;;;5.50;2.35;;;6.90;99.90;;;;;;5081133;28;20040;-72
2023/03/29 07:49:56;;;;;;;6.15;2.60;;;6.90;99.90;;;;;;5060315;28;20036;-72
2023/03/29 07:52:22;;;;;;;7.53;2.75;;;7.00;99.90;;;;;;5081648;28;20051;-72
2023/03/29 07:54:48;;;;;;;5.75;2.40;;;7.00;99.90;;;;;;5071545;28;20045;-72
2023/03/29 07:57:13;;;;;;;4.07;2.03;;;7.00;99.90;;;;;;5061051;28;20039;-72
2023/03/29 07:59:39;;;;;;;4.80;2.75;;;7.00;99.90;;;;;;5064436;28;20043;-74
2023/03/29 08:02:05;;;;;;;5.22;2.53;;;7.10;99.90;;;;;;5077899;28;20033;-72
2023/03/29 08:04:31;;;;;;;5.38;2.45;;;7.10;99.90;;;;;;5102875;27;20032;-72
2023/03/29 08:06:57;;;;;;;7.00;2.58;;;7.10;99.90;;;;;;5077775;28;20127;-73
2023/03/29 08:09:22;;;;;;;4.43;2.28;;;7.10;99.90;;;;;;5083169;28;20039;-72
2023/03/29 08:11:48;;;;;;;5.43;2.25;;;7.10;99.90;;;;;;5085115;28;20071;-72
2023/03/29 08:14:14;;;;;;;5.43;2.30;;;7.20;99.90;;;;;;5083321;28;20045;-72
2023/03/29 08:16:40;;;;;;;6.82;2.90;;;7.10;99.90;;;;;;5080242;28;20544;-73
2023/03/29 08:19:06;;;;;;;6.18;2.33;;;7.20;99.90;;;;;;5063600;28;20485;-72
2023/03/29 08:21:31;;;;;;;5.05;2.25;;;7.20;99.90;;;;;;5060804;28;20123;-72
2023/03/29 08:23:57;;;;;;;5.25;2.50;;;7.20;99.90;;;;;;5060856;28;20054;-72
2023/03/29 08:26:22;;;;;;;6.05;2.80;;;7.20;99.90;;;;;;5077947;28;20033;-72
2023/03/29 08:28:48;;;;;;;3.60;2.22;;;7.20;99.90;;;;;;5078076;28;20409;-72
2023/03/29 08:31:14;;;;;;;5.28;2.45;;;7.20;99.90;;;;;;5061127;28;20032;-72
2023/03/29 08:33:42;;;;;;;5.95;2.42;;;7.30;99.90;;;;;;5073171;28;20061;-72
2023/03/29 08:36:08;;;;;;;3.90;2.25;;;7.30;99.90;;;;;;5074391;28;20067;-72
2023/03/29 08:38:34;;;;;;;5.03;2.20;;;7.40;99.90;;;;;;5075834;28;20047;-73
2023/03/29 08:41:00;;;;;;;6.55;2.40;;;7.40;99.90;;;;;;5078145;28;20146;-72
2023/03/29 08:44:01;;;;;;;5.63;2.72;;;7.50;99.90;;;;;;5079644;28;20126;-72
2023/03/29 08:47:00;;;;;;;6.07;2.70;;;7.60;99.90;;;;;;5064266;28;20044;-73
2023/03/29 08:49:27;;;;;;;5.78;2.30;;;7.70;99.90;;;;;;5082394;28;20044;-72
2023/03/29 08:52:00;;;;;;;4.68;2.65;;;7.90;99.90;;;;;;5080911;28;20699;-72
2023/03/29 08:54:30;;;;;;;5.35;2.30;;;7.90;99.90;;;;;;5090093;28;20078;-72
2023/03/29 08:57:04;;;;;;;4.43;2.58;;;8.00;99.90;;;;;;5072889;28;20047;-72
2023/03/29 08:59:31;;;;;;;7.30;2.40;;;8.10;99.90;;;;;;5087968;28;20043;-72
2023/03/29 09:01:59;;;;;;;7.05;3.08;;;8.10;99.90;;;;;;5084883;28;20152;-72
2023/03/29 09:04:31;;;;;;;7.07;2.45;;;8.20;99.90;;;;;;5087143;28;20024;-72
2023/03/29 09:06:58;;;;;;;4.72;2.40;;;8.20;99.90;;;;;;5073598;28;20547;-72
2023/03/29 09:09:31;;;;;;;8.50;2.20;;;8.20;99.90;;;;;;5077359;28;20396;-72
2023/03/29 09:12:15;;;;;;;7.68;2.78;;;8.30;99.90;;;;;;5054882;28;20077;-72
2023/03/29 09:15:05;;;;;;;4.47;2.05;;;8.40;99.90;;;;;;5077074;28;20044;-72
2023/03/29 09:17:51;;;;;;;5.70;2.28;;;8.50;99.90;;;;;;5079942;28;20131;-72
2023/03/29 09:20:31;;;;;;;5.82;2.78;;;8.60;99.90;;;;;;5074829;28;20101;-72
2023/03/29 09:23:19;;;;;;;7.35;3.08;;;8.60;99.90;;;;;;5066157;28;20304;-72
2023/03/29 09:26:07;;;;;;;4.63;2.38;;;8.80;99.90;;;;;;5066813;28;20058;-72
2023/03/29 09:28:38;;;;;;;4.65;2.15;;;8.80;99.90;;;;;;5084534;28;20039;-72
2023/03/29 09:31:17;;;;;;;6.10;2.88;;;8.90;99.90;;;;;;5067037;28;20044;-72
2023/03/29 09:33:54;;;;;;;6.03;2.55;;;9.00;99.90;;;;;;5074230;28;20050;-72
2023/03/29 09:36:29;;;;;;;5.65;2.35;;;9.00;99.90;;;;;;5076827;28;20046;-72
2023/03/29 09:38:55;;;;;;;7.22;2.92;;;9.10;99.90;;;;;;5051149;28;20117;-72
2023/03/29 09:41:35;;;;;;;5.85;2.55;;;9.20;99.90;;;;;;5071083;28;20162;-72
2023/03/29 09:44:11;;;;;;;7.40;2.60;;;9.30;99.90;;;;;;5076143;28;20036;-72
2023/03/29 09:46:59;;;;;;;7.80;3.10;;;9.30;99.90;;;;;;5072759;28;20048;-72
2023/03/29 09:49:33;;;;;;;5.85;2.58;;;9.30;99.90;;;;;;5065522;28;20048;-72
2023/03/29 09:52:04;;;;;;;7.65;2.92;;;9.40;99.90;;;;;;5069576;28;20067;-72
2023/03/29 09:54:31;;;;;;;6.57;2.85;;;9.30;99.90;;;;;;5067660;28;20096;-72
2023/03/29 09:56:58;;;;;;;6.35;2.85;;;9.40;99.90;;;;;;5077519;28;20039;-72
2023/03/29 09:59:23;;;;;;;8.18;2.95;;;9.40;99.90;;;;;;5088874;28;20047;-72
2023/03/29 10:01:49;;;;;;;6.53;2.58;;;9.40;99.90;;;;;;5082679;28;20036;-72
2023/03/29 10:04:15;;;;;;;6.82;2.95;;;9.50;99.90;;;;;;5076197;28;20032;-72
2023/03/29 10:06:50;;;;;;;5.47;2.67;;;9.50;99.90;;;;;;5083574;28;20041;-72
2023/03/29 10:09:19;;;;;;;5.40;2.28;;;9.50;99.90;;;;;;5074378;28;20070;-72
2023/03/29 10:11:57;;;;;;;4.30;2.33;;;9.60;99.90;;;;;;5099062;27;20047;-72
2023/03/29 10:14:35;;;;;;;9.18;3.00;;;9.60;99.90;;;;;;5066643;28;20055;-72
2023/03/29 10:17:05;;;;;;;6.28;3.25;;;9.70;99.90;;;;;;5080654;28;20262;-72
2023/03/29 10:19:33;;;;;;;6.68;3.20;;;9.70;99.90;;;;;;5085635;28;20550;-72
2023/03/29 10:22:15;;;;;;;5.95;3.03;;;9.70;99.90;;;;;;5076324;28;20037;-72
2023/03/29 10:24:46;;;;;;;7.55;3.17;;;9.70;99.90;;;;;;5079453;28;20074;-72
2023/03/29 10:27:12;;;;;;;8.93;3.08;;;9.80;99.90;;;;;;5070915;28;20049;-72
2023/03/29 10:29:41;;;;;;;7.15;3.13;;;9.80;99.90;;;;;;5102230;27;20113;-72
2023/03/29 10:32:20;;;;;;;7.40;3.05;;;9.80;99.90;;;;;;5081352;28;20134;-72
2023/03/29 10:34:46;;;;;;;6.95;3.38;;;9.80;99.90;;;;;;5071553;28;20043;-72
2023/03/29 10:37:15;;;;;;;7.20;3.30;;;9.90;99.90;;;;;;5065714;28;20436;-72
2023/03/29 10:39:41;;;;;;;7.47;3.22;;;10.00;99.90;;;;;;5080090;28;20375;-73
2023/03/29 10:42:15;;;;;;;8.05;3.13;;;10.00;99.90;;;;;;5102809;28;20169;-72
2023/03/29 10:44:41;;;;;;;7.30;3.30;;;10.10;99.90;;;;;;5062745;28;20119;-72
2023/03/29 10:47:13;;;;;;;6.82;3.00;;;10.20;99.90;;;;;;5071586;28;20300;-74
2023/03/29 10:49:45;;;;;;;6.13;3.33;;;10.30;99.90;;;;;;5059394;28;20047;-72
2023/03/29 10:52:13;;;;;;;13.05;3.83;;;10.30;99.90;;;;;;5077251;28;20505;-73
2023/03/29 10:54:39;;;;;;;7.18;3.78;;;10.40;99.90;;;;;;5074585;28;20134;-72
2023/03/29 10:57:09;;;;;;;6.75;4.53;;;10.50;99.90;;;;;;5065703;28;20119;-72
2023/03/29 10:59:56;;;;;;;9.18;3.80;;;10.50;99.90;;;;;;5070561;28;20513;-72
2023/03/29 11:02:48;;;;;;;7.38;3.30;;;10.50;99.90;;;;;;5067879;28;20056;-72
2023/03/29 11:05:33;;;;;;;6.93;2.55;;;10.60;99.90;;;;;;5099143;28;20044;-71
2023/03/29 11:08:20;;;;;;;9.13;4.43;;;10.60;99.90;;;;;;5071910;28;20041;-72
2023/03/29 11:10:58;;;;;;;7.45;3.05;;;10.70;99.90;;;;;;5068557;28;20261;-72
2023/03/29 11:14:07;;;;;;;9.02;3.35;;;10.80;99.90;;;;;;5072736;28;20050;-75
2023/03/29 11:16:45;;;;;;;10.25;4.15;;;10.90;99.90;;;;;;5096511;28;20046;-71
2023/03/29 11:19:38;;;;;;;9.02;4.22;;;10.90;99.90;;;;;;5071594;28;20424;-72
2023/03/29 11:22:12;;;;;;;6.43;3.70;;;11.00;99.90;;;;;;5064374;28;20067;-72
2023/03/29 11:24:54;;;;;;;9.82;3.50;;;11.00;99.90;;;;;;5083414;28;20035;-72
2023/03/29 11:27:39;;;;;;;7.60;3.53;;;11.20;99.90;;;;;;5099619;28;20097;-72
2023/03/29 11:30:28;;;;;;;7.28;3.60;;;11.20;99.90;;;;;;5059090;28;20409;-72
2023/03/29 11:33:25;;;;;;;6.22;3.05;;;11.30;99.90;;;;;;5069718;28;20115;-72
2023/03/29 11:36:05;;;;;;;8.82;3.38;;;11.30;99.90;;;;;;5067428;28;20036;-72
2023/03/29 11:38:47;;;;;;;8.32;3.50;;;11.40;99.90;;;;;;5073074;28;20336;-72
2023/03/29 11:41:20;;;;;;;7.70;3.50;;;11.40;99.90;;;;;;5083605;28;20032;-72
2023/03/29 11:44:21;;;;;;;7.97;3.20;;;11.40;99.90;;;;;;5104998;27;20112;-73
2023/03/29 11:46:54;;;;;;;7.20;3.47;;;11.40;99.90;;;;;;5079694;28;20051;-70
2023/03/29 11:49:28;;;;;;;9.35;3.80;;;11.50;99.90;;;;;;5072853;28;20063;-72
2023/03/29 11:52:18;;;;;;;6.45;3.42;;;11.50;99.90;;;;;;5071429;28;20051;-73
2023/03/29 11:55:02;;;;;;;8.23;3.30;;;11.60;99.90;;;;;;5052232;28;20035;-72
2023/03/29 11:57:30;;;;;;;7.13;3.13;;;11.60;99.90;;;;;;5078523;28;20040;-73
2023/03/29 12:00:30;;;;;;;5.57;2.80;;;11.70;99.90;;;;;;5080174;28;20123;-72
2023/03/29 12:02:58;;;;;;;6.22;2.97;;;11.60;99.90;;;;;;5067064;28;20394;-73
2023/03/29 12:05:33;;;;;;;6.43;3.05;;;11.70;99.90;;;;;;5073905;28;20101;-72
2023/03/29 12:08:10;;;;;;;7.20;3.20;;;11.70;99.90;;;;;;5110369;27;20028;-72
2023/03/29 12:10:48;;;;;;;5.72;2.83;;;11.80;99.90;;;;;;5074265;28;20614;-73
2023/03/29 12:13:18;;;;;;;7.03;3.33;;;11.80;99.90;;;;;;5071502;28;20059;-73
2023/03/29 12:15:54;;;;;;;5.57;2.90;;;11.90;99.90;;;;;;5073278;28;20044;-72
2023/03/29 12:18:39;;;;;;;5.32;3.10;;;12.10;99.90;;;;;;5089074;28;20044;-72
2023/03/29 12:21:12;;;;;;;5.03;2.95;;;12.10;99.90;;;;;;5057621;28;20089;-72
2023/03/29 12:23:40;;;;;;;5.57;2.92;;;12.10;99.90;;;;;;5105607;27;20804;-72
2023/03/29 12:26:33;;;;;;;6.88;2.80;;;12.10;99.90;;;;;;5079850;28;20478;-72
2023/03/29 12:29:06;;;;;;;5.10;2.85;;;12.10;99.90;;;;;;5066301;28;20520;-73
2023/03/29 12:31:46;;;;;;;6.72;3.00;;;12.10;99.90;;;;;;5061074;28;20036;-72
2023/03/29 12:34:29;;;;;;;5.05;2.90;;;12.10;99.90;;;;;;5070501;28;20501;-73
2023/03/29 12:37:22;;;;;;;6.80;3.25;;;12.10;99.90;;;;;;5073927;28;20041;-73
2023/03/29 12:39:50;;;;;;;8.25;3.72;;;12.10;99.90;;;;;;5059331;28;20092;-73
2023/03/29 12:42:19;;;;;;;7.35;3.17;;;12.10;99.90;;;;;;5107191;27;20068;-73
2023/03/29 12:44:49;;;;;;;5.07;2.45;;;12.10;99.90;;;;;;5071083;28;20048;-72
2023/03/29 12:47:20;;;;;;;5.50;2.65;;;12.10;99.90;;;;;;5074923;28;20051;-73
2023/03/29 12:49:46;;;;;;;6.45;2.83;;;12.10;99.90;;;;;;5047712;28;20380;-73
2023/03/29 12:52:31;;;;;;;6.13;3.13;;;12.10;99.90;;;;;;5085954;28;20119;-73
2023/03/29 12:55:20;;;;;;;9.15;3.30;;;12.20;99.90;;;;;;5086005;28;20305;-72
2023/03/29 12:58:05;;;;;;;5.60;2.90;;;12.20;99.90;;;;;;5076021;28;20046;-73
2023/03/29 13:00:41;;;;;;;6.05;3.15;;;12.20;99.90;;;;;;5066535;28;20055;-73
2023/03/29 13:03:41;;;;;;;4.63;2.55;;;12.30;99.90;;;;;;5067164;28;20148;-72
2023/03/29 13:06:09;;;;;;;6.53;3.15;;;12.20;99.90;;;;;;5099629;27;20048;-73
2023/03/29 13:08:39;;;;;;;5.68;2.65;;;12.30;99.90;;;;;;5070708;28;20041;-72
2023/03/29 13:11:10;;;;;;;7.80;2.95;;;12.30;99.90;;;;;;5065384;28;20430;-73
2023/03/29 13:13:38;;;;;;;7.03;2.95;;;12.20;99.90;;;;;;5074166;28;20498;-73
2023/03/29 13:16:16;;;;;;;6.28;2.75;;;12.20;99.90;;;;;;5068143;28;20125;-73